createdAt,value
2023-04-05T00:01:20.071Z,47.15
2023-04-05T00:03:48.530Z,47.70
2023-04-05T00:06:17.451Z,47.05
2023-04-05T00:08:49.912Z,47.37
2023-04-05T00:11:18.928Z,48.14
2023-04-05T00:13:48.420Z,48.00
2023-04-05T00:16:16.645Z,47.87
2023-04-05T00:18:49.983Z,48.25
2023-04-05T00:21:18.554Z,47.57
2023-04-05T00:23:46.921Z,47.34
2023-04-05T00:26:14.913Z,47.71
2023-04-05T00:28:44.557Z,47.53
2023-04-05T00:31:14.236Z,47.34
2023-04-05T00:33:42.250Z,46.60
2023-04-05T00:36:11.789Z,47.46
2023-04-05T00:38:40.635Z,47.13
2023-04-05T00:41:08.968Z,47.07
2023-04-05T00:43:37.176Z,47.08
2023-04-05T00:46:06.515Z,47.75
2023-04-05T00:48:39.449Z,47.43
2023-04-05T00:51:11.589Z,47.55
2023-04-05T00:53:40.832Z,47.36
2023-04-05T00:56:10.212Z,47.46
2023-04-05T00:58:38.297Z,46.99
2023-04-05T01:01:14.592Z,47.13
2023-04-05T01:03:48.091Z,47.90
2023-04-05T01:06:23.370Z,47.28
2023-04-05T01:09:01.231Z,47.36
2023-04-05T01:11:32.277Z,46.95
2023-04-05T01:14:00.777Z,47.81
2023-04-05T01:16:29.574Z,47.60
2023-04-05T01:18:59.286Z,47.62
2023-04-05T01:21:51.731Z,47.78
2023-04-05T01:24:35.195Z,48.11
2023-04-05T01:27:08.001Z,47.74
2023-04-05T01:29:57.028Z,47.96
2023-04-05T01:32:47.243Z,48.34
2023-04-05T01:35:23.596Z,48.96
2023-04-05T01:37:58.824Z,48.14
2023-04-05T01:40:27.119Z,47.64
2023-04-05T01:42:57.649Z,47.68
2023-04-05T01:45:26.983Z,47.61
2023-04-05T01:47:55.286Z,47.53
2023-04-05T01:50:23.776Z,47.10
2023-04-05T01:52:52.173Z,47.10
2023-04-05T01:55:20.942Z,46.99
2023-04-05T01:57:49.025Z,46.78
2023-04-05T02:00:18.071Z,46.61
2023-04-05T02:02:48.050Z,46.45
2023-04-05T02:05:16.770Z,46.40
2023-04-05T02:07:44.983Z,46.36
2023-04-05T02:10:13.395Z,46.31
2023-04-05T02:12:41.845Z,46.42
2023-04-05T02:15:12.423Z,46.18
2023-04-05T02:17:40.498Z,46.47
2023-04-05T02:20:12.490Z,46.52
2023-04-05T02:22:41.035Z,46.44
2023-04-05T02:25:09.856Z,46.49
2023-04-05T02:27:39.663Z,47.13
2023-04-05T02:30:09.470Z,46.83
2023-04-05T02:32:37.740Z,46.75
2023-04-05T02:35:06.596Z,47.15
2023-04-05T02:37:37.256Z,46.99
2023-04-05T02:40:08.313Z,47.05
2023-04-05T02:42:39.275Z,47.38
2023-04-05T02:45:08.487Z,47.07
2023-04-05T02:47:37.046Z,47.17
2023-04-05T02:50:05.777Z,47.27
2023-04-05T02:52:34.279Z,47.60
2023-04-05T02:55:04.867Z,47.70
2023-04-05T02:57:33.379Z,47.80
2023-04-05T03:00:01.926Z,48.20
2023-04-05T03:02:31.458Z,47.64
2023-04-05T03:05:02.395Z,47.31
2023-04-05T03:07:33.294Z,47.60
2023-04-05T03:10:02.673Z,47.75
2023-04-05T03:12:32.722Z,47.72
2023-04-05T03:15:01.358Z,47.98
2023-04-05T03:17:34.175Z,47.80
2023-04-05T03:20:08.992Z,47.67
2023-04-05T03:22:37.859Z,47.75
2023-04-05T03:25:07.282Z,47.73
2023-04-05T03:27:38.520Z,47.52
2023-04-05T03:30:08.476Z,47.67
2023-04-05T03:32:37.136Z,47.90
2023-04-05T03:35:06.342Z,47.77
2023-04-05T03:37:35.350Z,47.96
2023-04-05T03:40:06.596Z,48.34
2023-04-05T03:42:37.145Z,48.43
2023-04-05T03:45:06.619Z,48.11
2023-04-05T03:47:35.446Z,47.91
2023-04-05T03:50:04.268Z,48.16
2023-04-05T03:52:32.466Z,49.30
2023-04-05T03:55:01.185Z,48.85
2023-04-05T03:57:31.260Z,48.54
2023-04-05T04:00:01.515Z,48.63
2023-04-05T04:02:31.544Z,48.66
2023-04-05T04:05:04.508Z,48.46
2023-04-05T04:07:33.576Z,48.48
2023-04-05T04:10:01.880Z,48.78
2023-04-05T04:12:31.966Z,48.55
2023-04-05T04:15:02.069Z,48.98
2023-04-05T04:17:32.755Z,48.67
2023-04-05T04:20:01.155Z,48.72
2023-04-05T04:22:33.338Z,48.68
2023-04-05T04:25:05.083Z,48.83
2023-04-05T04:27:36.081Z,48.54
2023-04-05T04:30:10.380Z,48.58
2023-04-05T04:32:52.860Z,48.51
2023-04-05T04:35:25.375Z,49.13
2023-04-05T04:37:57.971Z,49.15
2023-04-05T04:40:32.523Z,48.77
2023-04-05T04:43:00.681Z,49.12
2023-04-05T04:45:34.784Z,49.14
2023-04-05T04:48:06.221Z,49.36
2023-04-05T04:50:36.117Z,49.07
2023-04-05T04:53:04.273Z,48.96
2023-04-05T04:55:33.636Z,49.31
2023-04-05T04:58:01.960Z,48.90
2023-04-05T05:00:31.552Z,49.29
2023-04-05T05:02:59.749Z,49.30
2023-04-05T05:05:28.104Z,49.36
2023-04-05T05:07:56.278Z,49.36
2023-04-05T05:10:24.317Z,49.56
2023-04-05T05:12:53.885Z,50.04
2023-04-05T05:15:22.040Z,49.64
2023-04-05T05:17:54.084Z,49.57
2023-04-05T05:20:23.154Z,49.72
2023-04-05T05:22:51.222Z,50.02
2023-04-05T05:25:20.124Z,49.76
2023-04-05T05:27:50.064Z,49.68
2023-04-05T05:30:18.206Z,49.61
2023-04-05T05:32:46.552Z,49.48
2023-04-05T05:35:16.188Z,49.52
2023-04-05T05:37:44.325Z,49.57
2023-04-05T05:40:13.491Z,49.70
2023-04-05T05:42:41.707Z,49.59
2023-04-05T05:45:11.157Z,49.68
2023-04-05T05:47:40.410Z,49.62
2023-04-05T05:50:10.206Z,49.49
2023-04-05T05:52:39.630Z,49.42
2023-04-05T05:55:09.408Z,49.49
2023-04-05T05:57:38.871Z,49.35
2023-04-05T06:00:10.557Z,49.05
2023-04-05T06:02:39.649Z,49.56
2023-04-05T06:05:08.853Z,49.54
2023-04-05T06:07:39.064Z,49.28
2023-04-05T06:10:09.399Z,49.47
2023-04-05T06:12:37.385Z,49.59
2023-04-05T06:15:06.498Z,49.58
2023-04-05T06:17:41.791Z,49.88
2023-04-05T06:20:11.652Z,49.83
2023-04-05T06:22:42.080Z,49.74
2023-04-05T06:25:12.885Z,49.75
2023-04-05T06:27:41.209Z,49.51
2023-04-05T06:30:10.055Z,49.54
2023-04-05T06:32:38.242Z,49.33
2023-04-05T06:35:07.817Z,49.82
2023-04-05T06:37:35.849Z,49.68
2023-04-05T06:40:05.978Z,49.50
2023-04-05T06:42:34.234Z,49.31
2023-04-05T06:45:04.398Z,49.35
2023-04-05T06:47:34.938Z,49.11
2023-04-05T06:50:03.754Z,49.37
2023-04-05T06:52:31.869Z,49.08
2023-04-05T06:54:59.855Z,49.06
2023-04-05T06:57:29.777Z,49.05
2023-04-05T06:59:58.598Z,48.65
2023-04-05T07:02:26.970Z,48.55
2023-04-05T07:05:00.677Z,48.29
2023-04-05T07:07:28.863Z,48.26
2023-04-05T07:09:57.070Z,47.90
2023-04-05T07:12:25.674Z,47.69
2023-04-05T07:14:55.365Z,47.64
2023-04-05T07:17:23.599Z,47.55
2023-04-05T07:19:52.064Z,47.27
2023-04-05T07:22:20.032Z,47.39
2023-04-05T07:24:48.592Z,47.23
2023-04-05T07:27:16.888Z,46.86
2023-04-05T07:29:46.578Z,46.86
2023-04-05T07:32:17.830Z,46.98
2023-04-05T07:34:45.813Z,46.81
2023-04-05T07:37:13.904Z,46.51
2023-04-05T07:39:42.130Z,46.75
2023-04-05T07:42:10.136Z,46.84
2023-04-05T07:44:38.098Z,46.74
2023-04-05T07:47:06.501Z,46.32
2023-04-05T07:49:37.841Z,46.06
2023-04-05T07:52:06.604Z,45.57
2023-04-05T07:54:34.788Z,45.20
2023-04-05T07:57:03.059Z,44.26
2023-04-05T07:59:31.240Z,44.35
2023-04-05T08:02:08.275Z,44.09
2023-04-05T08:04:41.854Z,43.87
2023-04-05T08:07:10.093Z,42.93
2023-04-05T08:09:38.066Z,42.72
2023-04-05T08:12:06.916Z,43.33
2023-04-05T08:14:34.885Z,42.15
2023-04-05T08:17:02.877Z,41.79
2023-04-05T08:19:31.040Z,42.02
2023-04-05T08:22:00.400Z,41.01
2023-04-05T08:24:28.568Z,41.57
2023-04-05T08:26:56.864Z,41.67
2023-04-05T08:29:24.845Z,42.37
2023-04-05T08:31:52.872Z,41.40
2023-04-05T08:34:21.082Z,40.88
2023-04-05T08:36:49.137Z,40.75
2023-04-05T08:39:18.736Z,40.16
2023-04-05T08:41:57.072Z,40.19
2023-04-05T08:44:27.614Z,37.84
2023-04-05T08:46:57.392Z,37.11
2023-04-05T08:49:25.449Z,40.03
2023-04-05T08:51:54.744Z,39.71
2023-04-05T08:54:24.361Z,40.03
2023-04-05T08:56:54.586Z,37.89
2023-04-05T08:59:23.592Z,39.22
2023-04-05T09:01:52.813Z,39.01
2023-04-05T09:04:23.396Z,38.88
2023-04-05T09:06:53.084Z,38.30
2023-04-05T09:09:22.186Z,39.58
2023-04-05T09:11:52.010Z,39.11
2023-04-05T09:14:21.346Z,38.71
2023-04-05T09:16:49.507Z,38.68
2023-04-05T09:19:17.547Z,38.26
2023-04-05T09:22:02.999Z,38.11
2023-04-05T09:24:34.906Z,35.11
2023-04-05T09:27:10.141Z,37.75
2023-04-05T09:29:39.327Z,34.22
2023-04-05T09:32:09.438Z,38.01
2023-04-05T09:34:38.411Z,38.63
2023-04-05T09:37:15.395Z,38.08
2023-04-05T09:39:44.176Z,36.45
2023-04-05T09:42:15.525Z,37.97
2023-04-05T09:44:51.986Z,38.58
2023-04-05T09:47:21.851Z,36.78
2023-04-05T09:49:52.490Z,37.46
2023-04-05T09:52:25.151Z,38.54
2023-04-05T09:54:56.811Z,37.58
2023-04-05T09:57:27.632Z,38.49
2023-04-05T09:59:56.653Z,37.95
2023-04-05T10:02:26.091Z,37.72
2023-04-05T10:04:54.404Z,37.04
2023-04-05T10:07:22.416Z,35.77
2023-04-05T10:09:50.522Z,33.15
2023-04-05T10:12:27.594Z,36.55
2023-04-05T10:14:57.652Z,35.29
2023-04-05T10:17:30.387Z,34.96
2023-04-05T10:20:11.816Z,33.42
2023-04-05T10:22:50.099Z,31.83
2023-04-05T10:25:27.236Z,35.01
2023-04-05T10:28:03.156Z,32.99
2023-04-05T10:30:37.005Z,36.04
2023-04-05T10:33:17.550Z,34.13
2023-04-05T10:36:02.174Z,33.05
2023-04-05T10:38:31.141Z,33.67
2023-04-05T10:41:10.319Z,34.33
2023-04-05T10:43:40.300Z,31.29
2023-04-05T10:46:13.249Z,35.57
2023-04-05T10:48:49.365Z,34.89
2023-04-05T10:51:17.758Z,33.96
2023-04-05T10:53:48.585Z,36.25
2023-04-05T10:56:19.698Z,35.67
2023-04-05T10:58:50.122Z,36.51
2023-04-05T11:01:21.482Z,35.70
2023-04-05T11:03:51.633Z,35.12
2023-04-05T11:06:21.953Z,35.64
2023-04-05T11:08:52.175Z,35.18
2023-04-05T11:11:23.031Z,35.27
2023-04-05T11:13:53.441Z,35.16
2023-04-05T11:16:24.678Z,34.39
2023-04-05T11:18:53.753Z,34.03
2023-04-05T11:21:24.453Z,34.19
2023-04-05T11:24:07.800Z,33.90
2023-04-05T11:26:57.520Z,34.18
2023-04-05T11:29:48.276Z,31.87
2023-04-05T11:32:18.063Z,35.14
2023-04-05T11:34:58.258Z,34.54
2023-04-05T11:38:07.002Z,35.95
2023-04-05T11:40:36.469Z,30.07
2023-04-05T11:43:07.800Z,34.70
2023-04-05T11:45:38.121Z,34.80
2023-04-05T11:48:09.261Z,35.23
2023-04-05T11:50:39.193Z,35.63
2023-04-05T11:53:11.688Z,35.06
2023-04-05T11:55:41.265Z,33.77
2023-04-05T11:58:14.259Z,34.79
2023-04-05T12:00:42.946Z,29.35
2023-04-05T12:03:16.835Z,33.86
2023-04-05T12:05:52.274Z,31.51
2023-04-05T12:08:21.520Z,31.56
2023-04-05T12:10:56.893Z,33.91
2023-04-05T12:13:33.497Z,30.34
2023-04-05T12:16:03.022Z,30.62
2023-04-05T12:18:34.441Z,34.29
2023-04-05T12:21:06.469Z,33.03
2023-04-05T12:23:37.251Z,34.29
2023-04-05T12:26:08.070Z,34.12
2023-04-05T12:28:53.255Z,33.54
2023-04-05T12:31:37.142Z,30.60
2023-04-05T12:34:07.477Z,30.33
2023-04-05T12:36:38.921Z,34.29
2023-04-05T12:39:08.389Z,34.00
2023-04-05T12:41:37.185Z,33.97
2023-04-05T12:44:06.746Z,34.56
2023-04-05T12:46:42.141Z,34.75
2023-04-05T12:49:13.685Z,33.43
2023-04-05T12:51:46.241Z,33.35
2023-04-05T12:54:15.380Z,33.34
2023-04-05T12:56:43.759Z,34.15
2023-04-05T12:59:12.220Z,34.40
2023-04-05T13:01:40.473Z,34.58
2023-04-05T13:04:15.993Z,34.65
2023-04-05T13:06:47.816Z,34.41
2023-04-05T13:09:16.492Z,33.23
2023-04-05T13:11:44.446Z,34.88
2023-04-05T13:14:12.418Z,34.53
2023-04-05T13:16:40.656Z,34.61
2023-04-05T13:19:08.743Z,34.39
2023-04-05T13:21:36.727Z,35.08
2023-04-05T13:24:06.548Z,34.26
2023-04-05T13:26:34.584Z,33.88
2023-04-05T13:29:03.588Z,34.89
2023-04-05T13:31:33.646Z,33.89
2023-04-05T13:34:02.145Z,33.82
2023-04-05T13:36:31.112Z,33.05
2023-04-05T13:38:59.385Z,32.41
2023-04-05T13:41:28.727Z,33.08
2023-04-05T13:43:56.781Z,33.56
2023-04-05T13:46:25.027Z,34.26
2023-04-05T13:48:53.042Z,33.73
2023-04-05T13:51:20.982Z,34.00
2023-04-05T13:53:49.345Z,33.75
2023-04-05T13:56:17.273Z,34.06
2023-04-05T13:58:46.607Z,33.59
2023-04-05T14:01:15.095Z,33.86
2023-04-05T14:03:43.462Z,33.87
2023-04-05T14:06:11.619Z,33.66
2023-04-05T14:08:39.705Z,33.24
2023-04-05T14:11:08.189Z,32.83
2023-04-05T14:13:36.490Z,32.05
2023-04-05T14:16:06.976Z,34.11
2023-04-05T14:18:35.442Z,33.55
2023-04-05T14:21:03.474Z,33.09
2023-04-05T14:23:31.401Z,33.54
2023-04-05T14:26:00.751Z,31.92
2023-04-05T14:28:28.730Z,33.39
2023-04-05T14:30:58.477Z,34.07
2023-04-05T14:33:28.182Z,34.02
2023-04-05T14:35:56.358Z,33.39
2023-04-05T14:38:24.986Z,33.80
2023-04-05T14:40:53.314Z,33.57
2023-04-05T14:43:21.303Z,33.72
2023-04-05T14:45:49.218Z,34.21
2023-04-05T14:48:17.461Z,34.49
2023-04-05T14:50:46.824Z,34.11
2023-04-05T14:53:15.579Z,32.47
2023-04-05T14:55:43.853Z,34.16
2023-04-05T14:58:14.249Z,33.02
2023-04-05T15:00:42.791Z,33.98
2023-04-05T15:03:11.687Z,34.50
2023-04-05T15:05:39.794Z,34.19
2023-04-05T15:08:09.122Z,34.49
2023-04-05T15:10:37.385Z,33.47
2023-04-05T15:13:05.509Z,32.49
2023-04-05T15:15:33.777Z,34.16
2023-04-05T15:18:02.426Z,34.40
2023-04-05T15:20:30.490Z,33.02
2023-04-05T15:22:58.525Z,32.71
2023-04-05T15:25:28.216Z,33.23
2023-04-05T15:28:00.973Z,33.36
2023-04-05T15:30:31.706Z,32.32
2023-04-05T15:32:59.775Z,32.49
2023-04-05T15:35:29.425Z,33.31
2023-04-05T15:37:58.603Z,32.85
2023-04-05T15:40:29.297Z,32.72
2023-04-05T15:42:57.585Z,32.49
2023-04-05T15:45:25.539Z,33.03
2023-04-05T15:47:53.662Z,33.07
2023-04-05T15:50:22.133Z,33.54
2023-04-05T15:52:50.215Z,33.24
2023-04-05T15:55:18.437Z,32.99
2023-04-05T15:57:49.508Z,33.74
2023-04-05T16:00:18.389Z,33.95
2023-04-05T16:02:46.853Z,34.20
2023-04-05T16:05:15.288Z,33.96
2023-04-05T16:07:43.380Z,33.73
2023-04-05T16:10:12.287Z,33.50
2023-04-05T16:12:40.436Z,33.94
2023-04-05T16:15:10.836Z,34.02
2023-04-05T16:17:39.141Z,33.95
2023-04-05T16:20:08.273Z,34.00
2023-04-05T16:22:36.388Z,34.46
2023-04-05T16:25:05.178Z,33.50
2023-04-05T16:27:33.714Z,34.15
2023-04-05T16:30:01.661Z,34.24
2023-04-05T16:32:31.249Z,34.18
2023-04-05T16:34:59.472Z,33.53
2023-04-05T16:37:30.080Z,34.14
2023-04-05T16:39:58.282Z,34.08
2023-04-05T16:42:26.283Z,34.22
2023-04-05T16:44:54.276Z,34.22
2023-04-05T16:47:22.545Z,32.81
2023-04-05T16:49:52.084Z,33.30
2023-04-05T16:52:20.450Z,33.79
2023-04-05T16:54:48.667Z,33.98
2023-04-05T16:57:16.719Z,34.09
2023-04-05T16:59:44.757Z,33.54
2023-04-05T17:02:13.002Z,34.04
2023-04-05T17:04:41.464Z,34.19
2023-04-05T17:07:10.801Z,34.10
2023-04-05T17:09:39.056Z,34.27
2023-04-05T17:12:07.096Z,34.18
2023-04-05T17:14:35.121Z,34.25
2023-04-05T17:17:03.378Z,34.47
2023-04-05T17:19:31.618Z,34.48
2023-04-05T17:21:59.529Z,34.62
2023-04-05T17:24:34.877Z,34.74
2023-04-05T17:27:02.870Z,34.10
2023-04-05T17:29:31.317Z,34.56
2023-04-05T17:31:59.322Z,34.49
2023-04-05T17:34:27.371Z,34.87
2023-04-05T17:36:55.586Z,35.34
2023-04-05T17:39:23.565Z,35.75
2023-04-05T17:41:56.961Z,36.23
2023-04-05T17:44:25.312Z,36.29
2023-04-05T17:47:01.666Z,36.49
2023-04-05T17:49:37.776Z,36.58
2023-04-05T17:52:08.299Z,37.20
2023-04-05T17:54:37.533Z,37.03
2023-04-05T17:57:07.214Z,37.18
2023-04-05T17:59:36.319Z,36.78
2023-04-05T18:02:04.579Z,37.21
2023-04-05T18:04:32.886Z,37.58
2023-04-05T18:07:01.355Z,37.49
2023-04-05T18:09:29.572Z,37.45
2023-04-05T18:11:57.739Z,38.52
2023-04-05T18:14:27.129Z,39.00
2023-04-05T18:16:55.132Z,39.50
2023-04-05T18:19:23.383Z,39.53
2023-04-05T18:21:51.387Z,39.54
2023-04-05T18:24:19.647Z,39.85
2023-04-05T18:26:50.163Z,40.07
2023-04-05T18:29:18.177Z,40.39
2023-04-05T18:31:47.519Z,40.01
2023-04-05T18:34:16.280Z,39.94
2023-04-05T18:36:44.367Z,39.84
2023-04-05T18:39:12.710Z,39.40
2023-04-05T18:41:41.274Z,39.53
2023-04-05T18:44:10.056Z,39.45
2023-04-05T18:46:38.664Z,40.02
2023-04-05T18:49:08.467Z,40.81
2023-04-05T18:51:36.773Z,40.45
2023-04-05T18:54:04.955Z,40.39
2023-04-05T18:56:33.685Z,40.67
2023-04-05T18:59:02.209Z,40.97
2023-04-05T19:01:30.466Z,40.87
2023-04-05T19:04:00.449Z,40.91
2023-04-05T19:06:30.038Z,41.21
2023-04-05T19:08:58.480Z,41.25
2023-04-05T19:11:26.449Z,41.50
2023-04-05T19:13:54.734Z,41.51
2023-04-05T19:16:23.026Z,41.56
2023-04-05T19:18:51.112Z,41.15
2023-04-05T19:21:19.199Z,41.08
2023-04-05T19:23:48.839Z,41.57
2023-04-05T19:26:16.868Z,41.68
2023-04-05T19:28:44.781Z,41.85
2023-04-05T19:31:13.018Z,41.95
2023-04-05T19:33:41.260Z,41.81
2023-04-05T19:36:09.345Z,41.54
2023-04-05T19:38:37.683Z,41.68
2023-04-05T19:41:07.077Z,41.72
2023-04-05T19:43:36.862Z,41.97
2023-04-05T19:46:09.419Z,42.02
2023-04-05T19:48:39.797Z,42.45
2023-04-05T19:51:08.414Z,42.10
2023-04-05T19:53:44.689Z,42.13
2023-04-05T19:56:18.405Z,43.07
2023-04-05T19:58:48.044Z,42.69
2023-04-05T20:01:32.073Z,42.48
2023-04-05T20:04:00.908Z,44.00
2023-04-05T20:06:34.808Z,42.63
2023-04-05T20:09:07.674Z,42.83
2023-04-05T20:11:37.272Z,42.79
2023-04-05T20:14:07.555Z,42.93
2023-04-05T20:16:38.000Z,43.02
2023-04-05T20:19:08.248Z,42.84
2023-04-05T20:21:38.194Z,42.76
2023-04-05T20:24:09.773Z,42.67
2023-04-05T20:26:39.690Z,42.98
2023-04-05T20:29:09.196Z,42.74
2023-04-05T20:31:40.155Z,42.72
2023-04-05T20:34:13.180Z,42.80
2023-04-05T20:36:48.181Z,43.21
2023-04-05T20:39:16.897Z,43.60
2023-04-05T20:41:46.616Z,43.33
2023-04-05T20:44:14.656Z,43.59
2023-04-05T20:46:45.465Z,43.50
2023-04-05T20:49:13.761Z,43.30
2023-04-05T20:51:43.122Z,43.31
2023-04-05T20:54:11.731Z,43.47
2023-04-05T20:56:40.204Z,43.52
2023-04-05T20:59:09.964Z,43.31
2023-04-05T21:01:42.077Z,43.39
2023-04-05T21:04:10.766Z,43.33
2023-04-05T21:06:39.817Z,43.44
2023-04-05T21:09:08.137Z,43.59
2023-04-05T21:11:36.487Z,43.54
2023-04-05T21:14:04.757Z,43.62
2023-04-05T21:16:34.243Z,43.54
2023-04-05T21:19:02.570Z,43.40
2023-04-05T21:21:31.247Z,43.53
2023-04-05T21:23:59.411Z,44.39
2023-04-05T21:26:27.517Z,44.21
2023-04-05T21:28:55.915Z,44.78
2023-04-05T21:31:23.954Z,44.32
2023-04-05T21:33:54.012Z,44.36
2023-04-05T21:36:22.307Z,44.89
2023-04-05T21:38:51.369Z,44.48
2023-04-05T21:41:19.411Z,44.24
2023-04-05T21:43:47.693Z,44.42
2023-04-05T21:46:15.701Z,44.19
2023-04-05T21:48:43.853Z,44.20
2023-04-05T21:51:13.389Z,44.22
2023-04-05T21:53:41.549Z,44.47
2023-04-05T21:56:09.619Z,44.37
2023-04-05T21:58:37.971Z,44.24
2023-04-05T22:01:06.268Z,44.30
2023-04-05T22:03:34.594Z,44.37
2023-04-05T22:06:02.919Z,44.29
2023-04-05T22:08:34.175Z,44.52
2023-04-05T22:11:02.638Z,44.28
2023-04-05T22:13:30.647Z,44.19
2023-04-05T22:15:58.758Z,44.35
2023-04-05T22:18:28.968Z,44.57
2023-04-05T22:20:57.138Z,44.60
2023-04-05T22:23:25.145Z,44.38
2023-04-05T22:25:54.822Z,44.51
2023-04-05T22:28:23.010Z,44.31
2023-04-05T22:30:51.521Z,44.30
2023-04-05T22:33:19.671Z,44.34
2023-04-05T22:35:47.695Z,44.31
2023-04-05T22:38:16.032Z,44.38
2023-04-05T22:40:45.318Z,44.42
2023-04-05T22:43:14.695Z,44.61
2023-04-05T22:45:42.728Z,45.48
2023-04-05T22:48:11.574Z,45.07
2023-04-05T22:50:39.577Z,44.41
2023-04-05T22:53:07.595Z,44.70
2023-04-05T22:55:37.403Z,44.87
2023-04-05T22:58:05.367Z,44.79
2023-04-05T23:00:35.019Z,44.52
2023-04-05T23:03:03.371Z,44.49
2023-04-05T23:05:31.867Z,44.69
2023-04-05T23:07:59.883Z,45.42
2023-04-05T23:10:28.253Z,45.93
2023-04-05T23:12:56.326Z,45.90
2023-04-05T23:15:25.967Z,45.56
2023-04-05T23:17:58.172Z,45.50
2023-04-05T23:20:26.683Z,45.24
2023-04-05T23:22:55.469Z,45.28
2023-04-05T23:25:24.564Z,45.09
2023-04-05T23:27:53.788Z,45.02
2023-04-05T23:30:22.469Z,45.39
2023-04-05T23:32:50.963Z,45.59
2023-04-05T23:35:21.240Z,45.70
2023-04-05T23:37:49.993Z,45.43
2023-04-05T23:40:18.195Z,45.80
2023-04-05T23:42:46.272Z,45.78
2023-04-05T23:45:14.918Z,45.81
2023-04-05T23:47:43.008Z,45.84
2023-04-05T23:50:11.476Z,46.02
2023-04-05T23:52:41.330Z,46.12
2023-04-05T23:55:10.058Z,45.80
2023-04-05T23:57:38.027Z,45.53
